createdAt,value
2019-03-28T00:00:40.849Z,18.63
2019-03-28T00:03:09.239Z,19.57
2019-03-28T00:05:37.620Z,18.33
2019-03-28T00:08:06.260Z,17.57
2019-03-28T00:10:35.254Z,17.50
2019-03-28T00:13:04.237Z,16.63
2019-03-28T00:15:33.076Z,16.93
2019-03-28T00:18:02.399Z,17.07
2019-03-28T00:20:30.915Z,17.50
2019-03-28T00:23:03.709Z,18.27
2019-03-28T00:25:32.103Z,17.97
2019-03-28T00:28:00.482Z,16.53
2019-03-28T00:30:28.872Z,16.20
2019-03-28T00:32:57.253Z,17.63
2019-03-28T00:35:26.212Z,17.57
2019-03-28T00:37:54.712Z,18.00
2019-03-28T00:40:23.109Z,17.53
2019-03-28T00:42:51.496Z,18.27
2019-03-28T00:45:19.884Z,18.47
2019-03-28T00:47:48.562Z,17.57
2019-03-28T00:50:17.076Z,17.60
2019-03-28T00:52:45.472Z,16.13
2019-03-28T00:55:13.940Z,16.17
2019-03-28T00:57:42.333Z,16.20
2019-03-28T01:00:13.124Z,15.77
2019-03-28T01:02:41.522Z,17.13
2019-03-28T01:05:10.784Z,15.67
2019-03-28T01:07:39.165Z,16.77
2019-03-28T01:10:08.404Z,16.43
2019-03-28T01:12:36.825Z,16.17
2019-03-28T01:15:08.229Z,14.57
2019-03-28T01:17:36.620Z,14.30
2019-03-28T01:20:06.628Z,15.20
2019-03-28T01:22:35.020Z,16.37
2019-03-28T01:25:03.514Z,14.90
2019-03-28T01:27:32.201Z,15.03
2019-03-28T01:30:00.594Z,14.77
2019-03-28T01:32:28.985Z,16.43
2019-03-28T01:34:57.736Z,16.53
2019-03-28T01:37:27.157Z,16.37
2019-03-28T01:39:55.548Z,16.57
2019-03-28T01:42:23.956Z,15.23
2019-03-28T01:44:52.344Z,15.40
2019-03-28T01:47:20.808Z,15.83
2019-03-28T01:49:49.196Z,15.13
2019-03-28T01:52:17.581Z,14.10
2019-03-28T01:54:45.980Z,15.20
2019-03-28T01:57:14.378Z,14.43
2019-03-28T01:59:42.764Z,14.90
2019-03-28T02:02:11.152Z,14.30
2019-03-28T02:04:39.545Z,15.13
2019-03-28T02:07:07.949Z,14.83
2019-03-28T02:09:36.352Z,15.73
2019-03-28T02:12:05.287Z,14.97
2019-03-28T02:14:34.301Z,15.93
2019-03-28T02:17:02.715Z,15.03
2019-03-28T02:19:31.105Z,15.57
2019-03-28T02:21:59.498Z,14.97
2019-03-28T02:24:27.901Z,14.90
2019-03-28T02:26:56.281Z,15.27
2019-03-28T02:29:24.695Z,15.37
2019-03-28T02:31:53.089Z,15.13
2019-03-28T02:34:21.476Z,16.07
2019-03-28T02:36:49.882Z,16.50
2019-03-28T02:39:18.261Z,16.70
2019-03-28T02:41:46.656Z,16.53
2019-03-28T02:44:15.051Z,16.27
2019-03-28T02:46:43.696Z,16.57
2019-03-28T02:49:12.093Z,17.03
2019-03-28T02:51:40.481Z,17.03
2019-03-28T02:54:08.878Z,16.50
2019-03-28T02:56:37.327Z,16.20
2019-03-28T02:59:05.733Z,17.73
2019-03-28T03:01:34.124Z,17.13
2019-03-28T03:04:02.509Z,16.23
2019-03-28T03:06:30.932Z,15.93
2019-03-28T03:08:59.695Z,17.43
2019-03-28T03:11:28.821Z,16.87
2019-03-28T03:13:57.226Z,16.67
2019-03-28T03:16:25.688Z,17.17
2019-03-28T03:18:54.078Z,16.77
2019-03-28T03:21:22.485Z,16.73
2019-03-28T03:23:50.880Z,17.03
2019-03-28T03:26:19.269Z,15.93
2019-03-28T03:28:47.910Z,16.03
2019-03-28T03:31:20.848Z,16.83
2019-03-28T03:33:46.433Z,17.73
2019-03-28T03:36:14.842Z,16.00
2019-03-28T03:38:43.220Z,16.00
2019-03-28T03:41:11.615Z,16.17
2019-03-28T03:43:40.013Z,16.53
2019-03-28T03:46:08.393Z,17.10
2019-03-28T03:48:36.790Z,16.90
2019-03-28T03:51:05.202Z,17.50
2019-03-28T03:53:33.590Z,17.63
2019-03-28T03:56:01.989Z,18.30
2019-03-28T03:58:30.376Z,17.63
2019-03-28T04:00:58.756Z,17.73
2019-03-28T04:03:27.148Z,17.50
2019-03-28T04:05:55.555Z,17.20
2019-03-28T04:08:23.993Z,17.57
2019-03-28T04:10:52.394Z,17.73
2019-03-28T04:13:21.043Z,16.80
2019-03-28T04:15:50.995Z,17.20
2019-03-28T04:18:22.079Z,18.13
2019-03-28T04:20:49.505Z,17.00
2019-03-28T04:23:17.910Z,18.03
2019-03-28T04:25:46.287Z,18.33
2019-03-28T04:28:30.075Z,17.83
2019-03-28T04:30:44.880Z,17.73
2019-03-28T04:33:13.342Z,17.60
2019-03-28T04:35:41.725Z,16.23
2019-03-28T04:38:10.115Z,16.70
2019-03-28T04:40:38.514Z,17.77
2019-03-28T04:43:06.897Z,17.23
2019-03-28T04:45:35.304Z,16.70
2019-03-28T04:48:03.764Z,16.50
2019-03-28T04:50:32.150Z,17.03
2019-03-28T04:53:00.549Z,18.20
2019-03-28T04:55:28.948Z,18.60
2019-03-28T04:57:57.341Z,17.43
2019-03-28T05:00:25.728Z,17.77
2019-03-28T05:02:54.141Z,18.13
2019-03-28T05:05:22.531Z,17.63
2019-03-28T05:07:50.938Z,17.90
2019-03-28T05:10:19.332Z,18.30
2019-03-28T05:12:47.733Z,18.13
2019-03-28T05:15:16.125Z,18.03
2019-03-28T05:17:44.523Z,17.50
2019-03-28T05:20:13.715Z,17.80
2019-03-28T05:22:42.778Z,18.10
2019-03-28T05:25:11.995Z,18.03
2019-03-28T05:27:40.392Z,18.53
2019-03-28T05:30:10.425Z,17.37
2019-03-28T05:32:38.817Z,18.07
2019-03-28T05:35:08.048Z,17.93
2019-03-28T05:37:38.126Z,20.10
2019-03-28T05:40:06.642Z,17.90
2019-03-28T05:42:35.100Z,18.30
2019-03-28T05:45:06.122Z,17.77
2019-03-28T05:47:34.532Z,17.77
2019-03-28T05:50:03.789Z,18.10
2019-03-28T05:52:32.181Z,19.63
2019-03-28T05:55:00.569Z,18.90
2019-03-28T05:57:29.002Z,18.60
2019-03-28T05:59:57.400Z,18.47
2019-03-28T06:02:25.958Z,18.13
2019-03-28T06:04:54.366Z,18.10
2019-03-28T06:07:22.759Z,19.90
2019-03-28T06:09:51.145Z,19.13
2019-03-28T06:12:19.542Z,19.57
2019-03-28T06:14:47.930Z,20.23
2019-03-28T06:17:16.364Z,19.13
2019-03-28T06:19:44.909Z,18.90
2019-03-28T06:22:13.554Z,19.17
2019-03-28T06:24:42.617Z,19.90
2019-03-28T06:27:10.998Z,19.10
2019-03-28T06:29:39.382Z,19.57
2019-03-28T06:32:07.786Z,19.33
2019-03-28T06:34:36.258Z,20.83
2019-03-28T06:37:04.637Z,20.57
2019-03-28T06:39:33.070Z,20.60
2019-03-28T06:42:03.155Z,20.23
2019-03-28T06:44:31.534Z,19.07
2019-03-28T06:46:59.936Z,19.63
2019-03-28T06:49:28.344Z,18.93
2019-03-28T06:51:56.732Z,19.10
2019-03-28T06:54:25.196Z,20.60
2019-03-28T06:56:53.608Z,20.00
2019-03-28T06:59:22.000Z,20.10
2019-03-28T07:01:50.381Z,20.10
2019-03-28T07:04:18.774Z,20.77
2019-03-28T07:06:47.173Z,19.73
2019-03-28T07:09:15.633Z,22.10
2019-03-28T07:11:44.020Z,20.70
2019-03-28T07:14:12.444Z,21.13
2019-03-28T07:16:40.839Z,20.27
2019-03-28T07:19:09.225Z,20.73
2019-03-28T07:21:37.624Z,22.70
2019-03-28T07:24:06.016Z,21.40
2019-03-28T07:26:34.417Z,22.47
2019-03-28T07:29:02.808Z,21.37
2019-03-28T07:31:31.209Z,25.17
2019-03-28T07:33:59.604Z,23.60
2019-03-28T07:36:28.009Z,24.37
2019-03-28T07:38:56.401Z,24.63
2019-03-28T07:41:24.802Z,25.00
2019-03-28T07:43:54.365Z,25.97
2019-03-28T07:46:22.828Z,24.40
2019-03-28T07:48:51.235Z,23.53
2019-03-28T07:51:19.699Z,22.90
2019-03-28T07:53:48.180Z,24.00
2019-03-28T07:56:16.564Z,24.40
2019-03-28T07:58:44.952Z,23.53
2019-03-28T08:01:13.354Z,23.23
2019-03-28T08:03:42.008Z,24.60
2019-03-28T08:06:12.704Z,22.80
2019-03-28T08:08:44.002Z,24.33
2019-03-28T08:11:10.735Z,24.27
2019-03-28T08:13:39.220Z,25.03
2019-03-28T08:16:07.616Z,24.10
2019-03-28T08:18:36.037Z,25.10
2019-03-28T08:21:04.496Z,24.37
2019-03-28T08:23:35.346Z,24.93
2019-03-28T08:26:03.022Z,24.57
2019-03-28T08:28:31.410Z,25.63
2019-03-28T08:30:59.796Z,24.93
2019-03-28T08:33:28.208Z,24.63
2019-03-28T08:35:58.745Z,25.97
2019-03-28T08:38:27.201Z,25.50
2019-03-28T08:40:55.593Z,24.40
2019-03-28T08:43:24.063Z,23.77
2019-03-28T08:45:52.472Z,24.20
2019-03-28T08:48:20.864Z,25.77
2019-03-28T08:50:49.267Z,26.20
2019-03-28T08:53:17.740Z,24.30
2019-03-28T08:55:46.316Z,24.33
2019-03-28T08:58:14.779Z,22.67
2019-03-28T09:00:51.755Z,24.33
2019-03-28T09:03:13.362Z,23.33
2019-03-28T09:05:41.820Z,22.07
2019-03-28T09:08:10.294Z,21.97
2019-03-28T09:10:38.861Z,22.80
2019-03-28T09:13:07.506Z,22.50
2019-03-28T09:15:43.668Z,22.97
2019-03-28T09:18:06.029Z,23.30
2019-03-28T09:20:34.490Z,21.37
2019-03-28T09:23:02.954Z,23.23
2019-03-28T09:25:31.416Z,21.80
2019-03-28T09:27:59.817Z,21.60
2019-03-28T09:30:47.929Z,22.27
2019-03-28T09:33:08.091Z,22.10
2019-03-28T09:35:36.585Z,21.97
2019-03-28T09:38:05.101Z,21.03
2019-03-28T09:40:33.508Z,23.27
2019-03-28T09:43:01.971Z,22.57
2019-03-28T09:45:30.520Z,20.57
2019-03-28T09:47:59.537Z,18.30
2019-03-28T09:50:28.000Z,19.93
2019-03-28T09:52:56.557Z,18.40
2019-03-28T09:55:25.035Z,17.77
2019-03-28T09:57:53.421Z,18.10
2019-03-28T10:00:22.594Z,18.43
2019-03-28T10:02:50.981Z,17.87
2019-03-28T10:05:19.389Z,15.93
2019-03-28T10:07:47.869Z,17.83
2019-03-28T10:10:16.413Z,14.70
2019-03-28T10:12:44.807Z,14.73
2019-03-28T10:15:14.340Z,15.63
2019-03-28T10:17:42.745Z,14.57
2019-03-28T10:20:11.272Z,14.57
2019-03-28T10:22:39.734Z,21.57
2019-03-28T10:25:12.382Z,15.73
2019-03-28T10:27:39.377Z,15.37
2019-03-28T10:30:12.172Z,15.80
2019-03-28T10:32:40.579Z,15.93
2019-03-28T10:35:09.904Z,16.00
2019-03-28T10:37:38.299Z,16.97
2019-03-28T10:40:09.141Z,15.10
2019-03-28T10:42:37.604Z,16.13
2019-03-28T10:45:08.344Z,15.30
2019-03-28T10:47:36.910Z,16.33
2019-03-28T10:50:07.937Z,16.77
2019-03-28T10:52:36.575Z,15.20
2019-03-28T10:55:06.810Z,15.37
2019-03-28T10:57:35.204Z,15.20
2019-03-28T11:00:07.020Z,14.37
2019-03-28T11:02:35.743Z,14.90
2019-03-28T11:05:05.670Z,13.43
2019-03-28T11:07:34.321Z,14.57
2019-03-28T11:10:02.721Z,14.80
2019-03-28T11:12:31.134Z,14.00
2019-03-28T11:14:59.593Z,14.50
2019-03-28T11:17:27.981Z,13.60
2019-03-28T11:19:56.457Z,13.57
2019-03-28T11:22:24.852Z,12.57
2019-03-28T11:24:53.289Z,12.57
2019-03-28T11:27:21.674Z,10.77
2019-03-28T11:29:50.077Z,10.80
2019-03-28T11:32:18.763Z,9.87
2019-03-28T11:34:47.858Z,6.73
2019-03-28T11:37:26.063Z,5.50
2019-03-28T11:39:46.739Z,9.37
2019-03-28T11:42:15.921Z,7.40
2019-03-28T11:44:44.395Z,9.10
2019-03-28T11:47:12.821Z,8.87
2019-03-28T11:49:41.205Z,9.73
2019-03-28T11:52:09.596Z,8.63
2019-03-28T11:54:37.992Z,9.00
2019-03-28T11:57:06.380Z,8.87
2019-03-28T11:59:34.785Z,9.13
2019-03-28T12:02:19.108Z,6.73
2019-03-28T12:04:33.322Z,9.47
2019-03-28T12:07:01.704Z,9.20
2019-03-28T12:09:30.101Z,9.00
2019-03-28T12:11:58.603Z,8.08
2019-03-28T12:14:26.972Z,9.73
2019-03-28T12:16:55.372Z,9.85
2019-03-28T12:19:23.772Z,9.75
2019-03-28T12:21:52.169Z,9.23
2019-03-28T12:24:20.556Z,8.90
2019-03-28T12:26:48.952Z,9.88
2019-03-28T12:29:17.381Z,9.20
2019-03-28T12:31:45.773Z,10.30
2019-03-28T12:34:14.174Z,9.40
2019-03-28T12:36:42.560Z,10.00
2019-03-28T12:39:10.961Z,9.93
2019-03-28T12:41:39.361Z,9.23
2019-03-28T12:44:07.769Z,9.50
2019-03-28T12:46:36.164Z,9.83
2019-03-28T12:49:04.556Z,10.43
2019-03-28T12:51:32.957Z,11.20
2019-03-28T12:54:01.360Z,11.20
2019-03-28T12:56:29.765Z,10.33
2019-03-28T12:58:58.160Z,10.00
2019-03-28T13:01:26.561Z,10.57
2019-03-28T13:03:54.968Z,11.07
2019-03-28T13:06:23.362Z,11.17
2019-03-28T13:08:51.772Z,11.27
2019-03-28T13:11:20.165Z,14.33
2019-03-28T13:13:48.556Z,13.53
2019-03-28T13:16:17.066Z,12.40
2019-03-28T13:18:45.445Z,12.67
2019-03-28T13:21:14.287Z,12.20
2019-03-28T13:23:43.329Z,12.67
2019-03-28T13:26:11.783Z,14.40
2019-03-28T13:28:40.201Z,13.93
2019-03-28T13:31:08.599Z,13.20
2019-03-28T13:33:36.993Z,13.00
2019-03-28T13:36:05.470Z,14.57
2019-03-28T13:38:33.853Z,13.20
2019-03-28T13:41:02.321Z,12.23
2019-03-28T13:43:30.937Z,13.13
2019-03-28T13:45:59.888Z,13.07
2019-03-28T13:48:28.343Z,13.60
2019-03-28T13:50:56.744Z,13.10
2019-03-28T13:53:38.265Z,12.40
2019-03-28T13:55:55.269Z,12.82
2019-03-28T13:58:23.673Z,13.65
2019-03-28T14:00:54.579Z,13.00
2019-03-28T14:03:22.180Z,12.70
2019-03-28T14:05:50.578Z,14.37
2019-03-28T14:08:19.014Z,14.80
2019-03-28T14:10:47.412Z,13.60
2019-03-28T14:13:15.804Z,14.28
2019-03-28T14:15:45.072Z,13.78
2019-03-28T14:18:13.471Z,14.25
2019-03-28T14:20:42.104Z,14.03
2019-03-28T14:23:10.508Z,13.50
2019-03-28T14:25:38.925Z,14.30
2019-03-28T14:28:07.321Z,14.10
2019-03-28T14:30:35.725Z,14.10
2019-03-28T14:33:11.231Z,15.03
2019-03-28T14:35:34.267Z,13.72
2019-03-28T14:38:02.675Z,14.95
2019-03-28T14:40:31.076Z,14.65
2019-03-28T14:42:59.488Z,15.40
2019-03-28T14:45:27.889Z,14.50
2019-03-28T14:47:56.456Z,15.65
2019-03-28T14:50:33.165Z,48.25
2019-03-28T14:53:02.388Z,30.35
2019-03-28T14:55:32.413Z,36.90
2019-03-28T14:58:03.572Z,25.92
2019-03-28T15:00:49.841Z,16.53
2019-03-28T15:03:26.101Z,15.93
2019-03-28T15:05:49.510Z,15.70
2019-03-28T15:08:18.146Z,19.13
2019-03-28T15:10:47.274Z,18.80
2019-03-28T15:13:15.680Z,15.50
2019-03-28T15:15:46.610Z,17.20
2019-03-28T15:18:14.996Z,16.53
2019-03-28T15:20:43.407Z,18.27
2019-03-28T15:23:11.970Z,16.97
2019-03-28T15:25:40.373Z,16.33
2019-03-28T15:28:08.770Z,17.00
2019-03-28T15:30:37.161Z,18.13
2019-03-28T15:33:05.568Z,17.40
2019-03-28T15:35:33.978Z,17.17
2019-03-28T15:38:02.369Z,19.00
2019-03-28T15:40:32.088Z,18.63
2019-03-28T15:43:01.855Z,18.87
2019-03-28T15:45:31.254Z,19.10
2019-03-28T15:48:00.957Z,20.10
2019-03-28T15:50:29.369Z,18.97
2019-03-28T15:52:57.790Z,19.07
2019-03-28T15:55:26.173Z,17.97
2019-03-28T15:57:54.582Z,17.73
2019-03-28T16:00:23.045Z,19.50
2019-03-28T16:02:51.438Z,20.17
2019-03-28T16:05:19.860Z,17.90
2019-03-28T16:07:48.252Z,19.67
2019-03-28T16:10:18.077Z,18.50
2019-03-28T16:12:46.549Z,19.47
2019-03-28T16:15:16.684Z,21.67
2019-03-28T16:17:45.084Z,20.10
2019-03-28T16:20:13.730Z,20.37
2019-03-28T16:22:42.128Z,18.90
2019-03-28T16:25:10.661Z,20.60
2019-03-28T16:27:39.065Z,20.00
2019-03-28T16:30:10.666Z,19.47
2019-03-28T16:32:39.056Z,23.37
2019-03-28T16:35:07.597Z,20.73
2019-03-28T16:37:38.941Z,21.47
2019-03-28T16:40:08.517Z,20.07
2019-03-28T16:42:36.921Z,20.40
2019-03-28T16:45:08.220Z,19.43
2019-03-28T16:47:36.617Z,19.90
2019-03-28T16:50:07.149Z,20.57
2019-03-28T16:52:35.544Z,20.13
2019-03-28T16:55:06.069Z,19.47
2019-03-28T16:57:34.476Z,20.00
2019-03-28T17:00:04.481Z,20.40
2019-03-28T17:02:32.881Z,19.60
2019-03-28T17:05:01.284Z,20.07
2019-03-28T17:07:31.105Z,19.47
2019-03-28T17:10:01.295Z,19.93
2019-03-28T17:12:29.695Z,20.73
2019-03-28T17:14:58.086Z,19.70
2019-03-28T17:17:26.494Z,19.97
2019-03-28T17:19:54.888Z,20.03
2019-03-28T17:22:23.284Z,20.47
2019-03-28T17:24:51.689Z,20.03
2019-03-28T17:27:20.088Z,20.77
2019-03-28T17:29:48.557Z,20.07
2019-03-28T17:32:16.960Z,20.43
2019-03-28T17:34:46.033Z,21.23
2019-03-28T17:37:15.113Z,20.73
2019-03-28T17:39:43.508Z,22.10
2019-03-28T17:42:11.905Z,22.23
2019-03-28T17:44:40.292Z,23.57
2019-03-28T17:47:08.949Z,21.80
2019-03-28T17:49:37.348Z,21.97
2019-03-28T17:52:05.816Z,22.00
2019-03-28T17:54:34.212Z,22.50
2019-03-28T17:57:02.605Z,22.27
2019-03-28T17:59:31.011Z,23.73
2019-03-28T18:01:59.480Z,22.27
2019-03-28T18:04:27.888Z,24.57
2019-03-28T18:06:56.926Z,40.83
2019-03-28T18:09:26.453Z,28.13
2019-03-28T18:11:54.916Z,27.03
2019-03-28T18:14:23.753Z,27.43
2019-03-28T18:16:52.880Z,28.07
2019-03-28T18:19:21.282Z,30.33
2019-03-28T18:22:02.505Z,31.20
2019-03-28T18:24:19.810Z,31.43
2019-03-28T18:26:48.196Z,31.93
2019-03-28T18:29:19.098Z,34.67
2019-03-28T18:31:50.696Z,32.63
2019-03-28T18:34:16.841Z,32.23
2019-03-28T18:36:47.329Z,33.07
2019-03-28T18:39:15.444Z,37.00
2019-03-28T18:41:43.833Z,35.80
2019-03-28T18:44:12.300Z,37.77
2019-03-28T18:46:40.693Z,36.43
2019-03-28T18:49:09.131Z,43.70
2019-03-28T18:51:37.541Z,40.40
2019-03-28T18:54:05.933Z,39.83
2019-03-28T18:56:34.320Z,40.90
2019-03-28T18:59:02.731Z,40.23
2019-03-28T19:01:31.116Z,41.92
2019-03-28T19:03:59.599Z,41.23
2019-03-28T19:06:28.025Z,34.97
2019-03-28T19:08:56.445Z,34.07
2019-03-28T19:11:24.865Z,34.63
2019-03-28T19:13:53.248Z,35.43
2019-03-28T19:16:21.969Z,32.97
2019-03-28T19:18:51.748Z,32.87
2019-03-28T19:21:20.852Z,35.07
2019-03-28T19:23:49.250Z,34.37
2019-03-28T19:26:17.645Z,32.67
2019-03-28T19:28:46.038Z,33.00
2019-03-28T19:31:14.441Z,31.57
2019-03-28T19:33:42.820Z,31.90
2019-03-28T19:36:12.205Z,31.60
2019-03-28T19:38:40.663Z,30.33
2019-03-28T19:41:09.052Z,29.67
2019-03-28T19:43:38.697Z,32.43
2019-03-28T19:46:07.259Z,32.40
2019-03-28T19:48:35.762Z,32.63
2019-03-28T19:51:04.220Z,33.73
2019-03-28T19:53:35.173Z,33.17
2019-03-28T19:56:02.741Z,34.27
2019-03-28T19:58:31.223Z,34.20
2019-03-28T20:00:59.625Z,36.20
2019-03-28T20:03:28.802Z,34.00
2019-03-28T20:05:57.435Z,35.50
2019-03-28T20:08:26.504Z,35.63
2019-03-28T20:10:54.924Z,36.00
2019-03-28T20:13:23.956Z,36.47
2019-03-28T20:15:53.061Z,36.50
2019-03-28T20:18:21.470Z,37.27
2019-03-28T20:20:49.889Z,36.63
2019-03-28T20:23:18.281Z,36.70
2019-03-28T20:25:46.724Z,37.03
2019-03-28T20:28:16.271Z,35.63
2019-03-28T20:30:45.260Z,37.00
2019-03-28T20:33:13.747Z,37.50
2019-03-28T20:35:42.183Z,36.27
2019-03-28T20:38:10.620Z,35.33
2019-03-28T20:40:39.070Z,36.20
2019-03-28T20:43:08.116Z,36.00
2019-03-28T20:45:37.163Z,38.03
2019-03-28T20:48:05.668Z,37.43
2019-03-28T20:50:34.072Z,38.57
2019-03-28T20:53:02.460Z,39.43
2019-03-28T20:55:30.852Z,38.30
2019-03-28T20:57:59.249Z,37.10
2019-03-28T21:00:36.575Z,37.20
2019-03-28T21:03:05.987Z,38.37
2019-03-28T21:05:34.392Z,39.43
2019-03-28T21:08:03.553Z,40.23
2019-03-28T21:10:33.512Z,40.83
2019-03-28T21:13:02.051Z,43.30
2019-03-28T21:15:30.454Z,43.73
2019-03-28T21:17:58.848Z,43.10
2019-03-28T21:20:27.235Z,45.00
2019-03-28T21:22:55.629Z,42.53
2019-03-28T21:25:24.030Z,43.43
2019-03-28T21:27:52.435Z,41.47
2019-03-28T21:30:21.221Z,45.13
2019-03-28T21:32:55.228Z,44.83
2019-03-28T21:35:19.716Z,45.00
2019-03-28T21:37:48.124Z,42.80
2019-03-28T21:40:16.525Z,45.33
2019-03-28T21:42:44.913Z,45.10
2019-03-28T21:45:15.084Z,46.10
2019-03-28T21:47:43.976Z,44.50
2019-03-28T21:50:12.517Z,47.57
2019-03-28T21:52:41.151Z,46.03
2019-03-28T21:55:11.507Z,45.37
2019-03-28T21:57:42.474Z,44.33
2019-03-28T22:00:11.444Z,48.23
2019-03-28T22:02:39.856Z,47.23
2019-03-28T22:05:09.361Z,45.03
2019-03-28T22:07:37.750Z,44.63
2019-03-28T22:10:09.085Z,44.87
2019-03-28T22:12:37.544Z,45.93
2019-03-28T22:15:09.108Z,43.60
2019-03-28T22:17:37.567Z,47.70
2019-03-28T22:20:07.297Z,47.40
2019-03-28T22:22:35.688Z,47.47
2019-03-28T22:25:06.420Z,49.47
2019-03-28T22:27:34.815Z,48.90
2019-03-28T22:30:04.065Z,51.30
2019-03-28T22:32:32.459Z,47.40
2019-03-28T22:35:00.844Z,45.93
2019-03-28T22:37:29.245Z,45.73
2019-03-28T22:39:57.650Z,48.03
2019-03-28T22:42:26.030Z,47.87
2019-03-28T22:44:54.425Z,45.73
2019-03-28T22:47:22.812Z,45.17
2019-03-28T22:49:51.213Z,45.83
2019-03-28T22:52:19.601Z,45.77
2019-03-28T22:54:47.988Z,43.50
2019-03-28T22:57:16.386Z,46.47
2019-03-28T22:59:44.782Z,48.67
2019-03-28T23:02:13.177Z,47.33
2019-03-28T23:04:41.564Z,47.37
2019-03-28T23:07:11.379Z,50.33
2019-03-28T23:09:40.405Z,49.67
2019-03-28T23:12:09.095Z,51.30
2019-03-28T23:14:38.160Z,53.73
2019-03-28T23:17:06.560Z,52.37
2019-03-28T23:19:34.952Z,56.73
2019-03-28T23:22:03.364Z,55.37
2019-03-28T23:24:31.749Z,53.20
2019-03-28T23:27:00.796Z,50.90
2019-03-28T23:29:29.918Z,51.70
2019-03-28T23:31:58.317Z,47.53
2019-03-28T23:34:26.712Z,48.00
2019-03-28T23:36:55.105Z,51.97
2019-03-28T23:39:23.509Z,53.20
2019-03-28T23:41:51.902Z,53.83
2019-03-28T23:44:20.296Z,56.90
2019-03-28T23:46:48.705Z,56.67
2019-03-28T23:49:17.113Z,59.40
2019-03-28T23:51:45.484Z,55.80
2019-03-28T23:54:13.889Z,55.67
2019-03-28T23:56:42.365Z,53.83
2019-03-28T23:59:10.975Z,53.63
